Milan, New Hampshire
Current Conditions -  °F | °C
As of 12:52 AM on Wednesday 26 Nov 2014 (Local Time) from KBML Reporting Station
Overcast Overcast  
Wind Chill: 36°   Ceiling: 4200
Heat Index: 41°   Visibility: 10mi
Dew Point: 25°   Wind: 7mph
Humidity: 53%   Direction: NA
Pressure: 30.06"   Gusts: NA
Location:  44.57°N, 71.19°W
Report Text: KBML 260552Z AUTO VRB06KT 10SM OVC042 05/M04 A3006 RMK AO2 SLP186 T00501039 10056 21017 53025
Loading
Personal Weather Stations






























Interactive Weather Map New forecast layout! Learn more

10-Day Weather Forecast

Advertisements
Track Severe Weather on mobile